createdAt,value
2023-01-27T00:17:29.102Z,18.6
2023-01-27T00:37:29.139Z,18.6
2023-01-27T00:57:29.058Z,18.5
2023-01-27T01:17:29.047Z,18.4
2023-01-27T01:37:29.020Z,18.4
2023-01-27T01:57:29.165Z,18.3
2023-01-27T02:17:28.977Z,18.3
2023-01-27T02:37:29.130Z,18.2
2023-01-27T02:57:29.104Z,18.2
2023-01-27T03:17:28.920Z,18.1
2023-01-27T03:37:28.991Z,18.1
2023-01-27T03:57:29.024Z,18.1
2023-01-27T04:17:28.911Z,18.2
2023-01-27T04:37:29.043Z,18.6
2023-01-27T04:57:28.801Z,18.7
2023-01-27T05:17:28.748Z,18.9
2023-01-27T05:37:28.797Z,19.1
2023-01-27T05:57:28.822Z,19.2
2023-01-27T06:17:28.850Z,19.3
2023-01-27T06:37:28.656Z,19.4
2023-01-27T06:57:28.764Z,19.5
2023-01-27T07:17:28.625Z,19.6
2023-01-27T07:37:28.696Z,19.6
2023-01-27T07:57:28.556Z,19.7
2023-01-27T08:17:28.535Z,19.7
2023-01-27T08:37:28.495Z,19.8
2023-01-27T08:57:28.461Z,19.8
2023-01-27T09:17:28.451Z,19.8
2023-01-27T09:37:28.439Z,19.8
2023-01-27T09:57:28.440Z,19.8
2023-01-27T10:17:28.404Z,19.8
2023-01-27T10:37:28.357Z,19.9
2023-01-27T10:57:28.353Z,19.9
2023-01-27T11:17:28.323Z,19.9
2023-01-27T11:37:28.274Z,19.9
2023-01-27T11:57:28.268Z,20.0
2023-01-27T12:17:28.210Z,20.0
2023-01-27T12:37:28.224Z,20.0
2023-01-27T12:57:28.179Z,20.0
2023-01-27T13:17:28.150Z,20.0
2023-01-27T13:37:28.137Z,20.0
2023-01-27T13:57:28.094Z,20.0
2023-01-27T14:17:28.104Z,20.0
2023-01-27T14:37:28.053Z,20.0
2023-01-27T14:57:28.199Z,20.0
2023-01-27T15:17:28.103Z,20.0
2023-01-27T15:37:28.186Z,20.0
2023-01-27T15:57:27.964Z,20.1
2023-01-27T16:17:27.993Z,20.1
2023-01-27T16:37:28.029Z,20.1
2023-01-27T16:57:27.933Z,20.1
2023-01-27T17:17:27.955Z,20.1
2023-01-27T17:37:27.977Z,20.1
2023-01-27T17:57:27.828Z,20.1
2023-01-27T18:17:27.912Z,20.1
2023-01-27T18:37:27.994Z,20.1
2023-01-27T18:57:27.909Z,20.1
2023-01-27T19:17:27.789Z,20.1
2023-01-27T19:37:27.758Z,20.0
2023-01-27T19:57:27.841Z,19.9
2023-01-27T20:17:27.717Z,19.8
2023-01-27T20:37:27.709Z,19.6
2023-01-27T20:57:27.645Z,19.5
2023-01-27T21:17:27.627Z,19.3
2023-01-27T21:37:27.613Z,19.2
2023-01-27T21:57:27.496Z,19.0
2023-01-27T22:17:27.609Z,18.9
2023-01-27T22:37:27.418Z,18.8
2023-01-27T22:57:27.502Z,18.7
2023-01-27T23:17:27.422Z,18.7
2023-01-27T23:37:27.363Z,18.6
2023-01-27T23:57:27.356Z,18.6
